Time,TemperatureF,DewpointF,PressureIn,WindDirection,WindDirectionDegrees,WindSpeedMPH,WindSpeedGustMPH,Humidity,HourlyPrecipIn,Conditions,Clouds,dailyrainin,SoftwareType,DateUTC
2013-05-13 00:00:00,52.2,48.1,30.03,East,91,0.0,1.0,86,0.00,,,0.00,Wunderground v.1.15,2013-05-13 07:00:00,
2013-05-13 00:05:00,51.9,48.2,30.03,East,91,0.0,1.0,87,0.00,,,0.00,Wunderground v.1.15,2013-05-13 07:05:00,
2013-05-13 00:15:00,51.5,47.8,30.03,East,91,0.0,0.0,87,0.00,,,0.00,Wunderground v.1.15,2013-05-13 07:15:00,
2013-05-13 00:25:00,51.1,46.4,30.03,East,91,0.0,0.0,84,0.00,,,0.00,Wunderground v.1.15,2013-05-13 07:25:00,
2013-05-13 00:35:00,50.8,46.1,30.03,East,91,0.0,0.0,84,0.00,,,0.00,Wunderground v.1.15,2013-05-13 07:35:00,
2013-05-13 00:45:00,50.8,46.1,30.03,East,87,0.0,1.0,84,0.00,,,0.00,Wunderground v.1.15,2013-05-13 07:45:00,
2013-05-13 00:50:00,50.9,45.9,30.03,East,94,1.0,1.0,83,0.00,,,0.00,Wunderground v.1.15,2013-05-13 07:50:00,
2013-05-13 01:00:00,51.1,46.4,30.03,East,94,0.0,0.0,84,0.00,,,0.00,Wunderground v.1.15,2013-05-13 08:00:00,
2013-05-13 01:05:00,51.0,46.0,30.03,ESE,115,0.0,0.0,83,0.00,,,0.00,Wunderground v.1.15,2013-05-13 08:05:00,
2013-05-13 01:15:00,51.1,47.4,30.03,SE,146,0.0,0.0,87,0.00,,,0.00,Wunderground v.1.15,2013-05-13 08:15:00,
2013-05-13 01:25:00,51.3,48.2,30.03,SE,146,0.0,0.0,89,0.00,,,0.00,Wunderground v.1.15,2013-05-13 08:25:00,
2013-05-13 01:35:00,51.0,47.6,30.03,SE,146,0.0,0.0,88,0.00,,,0.00,Wunderground v.1.15,2013-05-13 08:35:00,
2013-05-13 01:45:00,50.7,47.6,30.03,SE,146,0.0,0.0,89,0.00,,,0.00,Wunderground v.1.15,2013-05-13 08:45:00,
2013-05-13 01:55:00,50.4,47.3,30.03,SE,146,0.0,0.0,89,0.00,,,0.00,Wunderground v.1.15,2013-05-13 08:55:00,
2013-05-13 02:05:00,50.0,46.9,30.02,SE,146,0.0,0.0,89,0.00,,,0.00,Wunderground v.1.15,2013-05-13 09:05:00,
2013-05-13 02:15:00,49.7,46.6,30.03,SE,146,0.0,0.0,89,0.00,,,0.00,Wunderground v.1.15,2013-05-13 09:15:00,
2013-05-13 02:20:00,49.5,46.4,30.03,SE,146,0.0,0.0,89,0.00,,,0.00,Wunderground v.1.15,2013-05-13 09:20:00,
2013-05-13 02:30:00,50.2,48.3,30.03,WSW,245,0.0,0.0,93,0.00,,,0.00,Wunderground v.1.15,2013-05-13 09:30:00,
2013-05-13 02:40:00,50.9,49.2,30.02,WNW,283,0.0,0.0,94,0.00,,,0.00,Wunderground v.1.15,2013-05-13 09:40:00,
2013-05-13 02:50:00,50.8,48.8,30.02,WNW,283,0.0,0.0,93,0.00,,,0.00,Wunderground v.1.15,2013-05-13 09:50:00,
2013-05-13 03:00:00,50.5,48.3,30.02,WNW,289,0.0,0.0,92,0.00,,,0.00,Wunderground v.1.15,2013-05-13 10:00:00,
2013-05-13 03:10:00,50.2,48.0,30.02,WNW,289,0.0,0.0,92,0.00,,,0.00,Wunderground v.1.15,2013-05-13 10:10:00,
2013-05-13 03:15:00,50.0,47.8,30.02,WNW,289,0.0,0.0,92,0.00,,,0.00,Wunderground v.1.15,2013-05-13 10:15:00,
2013-05-13 03:25:00,49.5,47.3,30.02,WNW,289,0.0,0.0,92,0.00,,,0.00,Wunderground v.1.15,2013-05-13 10:25:00,
2013-05-13 03:30:00,49.4,47.2,30.02,WNW,289,0.0,0.0,92,0.00,,,0.00,Wunderground v.1.15,2013-05-13 10:30:00,
2013-05-13 03:35:00,49.4,47.5,30.02,WNW,289,0.0,0.0,93,0.00,,,0.00,Wunderground v.1.15,2013-05-13 10:35:00,
2013-05-13 03:45:00,49.9,48.2,30.02,WNW,289,0.0,0.0,94,0.00,,,0.00,Wunderground v.1.15,2013-05-13 10:45:00,
2013-05-13 03:55:00,50.1,48.4,30.03,WNW,289,0.0,0.0,94,0.00,,,0.00,Wunderground v.1.15,2013-05-13 10:55:00,
2013-05-13 04:05:00,50.3,48.9,30.03,WSW,238,0.0,0.0,95,0.00,,,0.00,Wunderground v.1.15,2013-05-13 11:05:00,
2013-05-13 04:10:00,50.3,48.6,30.02,WSW,238,0.0,0.0,94,0.00,,,0.00,Wunderground v.1.15,2013-05-13 11:10:00,
2013-05-13 04:20:00,50.3,48.6,30.03,SSE,160,0.0,0.0,94,0.00,,,0.00,Wunderground v.1.15,2013-05-13 11:20:00,
2013-05-13 04:25:00,50.3,48.6,30.02,SSE,147,0.0,0.0,94,0.00,,,0.00,Wunderground v.1.15,2013-05-13 11:25:00,
2013-05-13 04:30:00,50.3,48.6,30.02,East,101,0.0,0.0,94,0.00,,,0.00,Wunderground v.1.15,2013-05-13 11:30:00,
2013-05-13 04:35:00,50.4,48.7,30.02,East,101,0.0,0.0,94,0.00,,,0.00,Wunderground v.1.15,2013-05-13 11:35:00,
2013-05-13 04:40:00,50.6,49.2,30.02,East,83,0.0,0.0,95,0.00,,,0.00,Wunderground v.1.15,2013-05-13 11:40:00,
2013-05-13 04:45:00,50.7,49.3,30.02,ENE,69,0.0,0.0,95,0.00,,,0.00,Wunderground v.1.15,2013-05-13 11:45:00,
2013-05-13 04:50:00,50.8,49.4,30.02,ENE,76,0.0,0.0,95,0.00,,,0.00,Wunderground v.1.15,2013-05-13 11:50:00,
2013-05-13 05:00:00,50.5,48.8,30.02,East,90,0.0,0.0,94,0.00,,,0.00,Wunderground v.1.15,2013-05-13 12:00:00,
2013-05-13 05:05:00,50.3,48.6,30.02,East,101,0.0,0.0,94,0.00,,,0.00,Wunderground v.1.15,2013-05-13 12:05:00,
2013-05-13 05:10:00,50.0,48.1,30.02,East,101,0.0,1.0,93,0.00,,,0.00,Wunderground v.1.15,2013-05-13 12:10:00,
2013-05-13 05:15:00,49.7,47.8,30.02,East,101,0.0,1.0,93,0.00,,,0.00,Wunderground v.1.15,2013-05-13 12:15:00,
2013-05-13 05:25:00,49.3,47.4,30.03,East,101,0.0,0.0,93,0.00,,,0.00,Wunderground v.1.15,2013-05-13 12:25:00,
2013-05-13 05:35:00,48.7,46.5,30.03,East,101,0.0,0.0,92,0.00,,,0.00,Wunderground v.1.15,2013-05-13 12:35:00,
2013-05-13 05:45:00,48.5,46.6,30.04,East,101,0.0,0.0,93,0.00,,,0.00,Wunderground v.1.15,2013-05-13 12:45:00,
2013-05-13 05:50:00,48.7,47.1,30.04,East,101,0.0,0.0,94,0.00,,,0.00,Wunderground v.1.15,2013-05-13 12:50:00,
2013-05-13 06:00:00,49.2,47.8,30.04,East,101,0.0,0.0,95,0.00,,,0.00,Wunderground v.1.15,2013-05-13 13:00:00,
2013-05-13 06:05:00,49.5,48.1,30.04,East,101,0.0,0.0,95,0.00,,,0.00,Wunderground v.1.15,2013-05-13 13:05:00,
2013-05-13 06:15:00,50.0,48.6,30.04,ESE,103,0.0,0.0,95,0.00,,,0.00,Wunderground v.1.15,2013-05-13 13:15:00,
2013-05-13 06:20:00,50.3,49.2,30.04,ESE,103,0.0,0.0,96,0.00,,,0.00,Wunderground v.1.15,2013-05-13 13:20:00,
2013-05-13 06:30:00,50.7,49.6,30.04,ESE,103,0.0,1.0,96,0.00,,,0.00,Wunderground v.1.15,2013-05-13 13:30:00,
2013-05-13 06:40:00,50.8,49.7,30.04,East,98,0.0,0.0,96,0.00,,,0.00,Wunderground v.1.15,2013-05-13 13:40:00,
2013-05-13 06:50:00,51.0,49.6,30.05,East,98,0.0,0.0,95,0.00,,,0.00,Wunderground v.1.15,2013-05-13 13:50:00,
2013-05-13 06:55:00,51.0,49.6,30.04,East,91,0.0,1.0,95,0.00,,,0.00,Wunderground v.1.15,2013-05-13 13:55:00,
2013-05-13 07:05:00,51.1,49.7,30.05,East,93,0.0,2.0,95,0.00,,,0.00,Wunderground v.1.15,2013-05-13 14:05:00,
2013-05-13 07:10:00,51.2,49.8,30.05,East,93,0.0,0.0,95,0.00,,,0.00,Wunderground v.1.15,2013-05-13 14:10:00,
2013-05-13 07:20:00,51.5,50.1,30.05,SE,125,1.0,1.0,95,0.00,,,0.00,Wunderground v.1.15,2013-05-13 14:20:00,
2013-05-13 07:25:00,51.9,50.5,30.05,SE,139,1.0,1.0,95,0.00,,,0.00,Wunderground v.1.15,2013-05-13 14:25:00,
2013-05-13 07:35:00,52.5,51.1,30.05,SSE,164,2.0,2.0,95,0.00,,,0.00,Wunderground v.1.15,2013-05-13 14:35:00,
2013-05-13 07:40:00,52.7,51.3,30.05,SE,142,2.0,2.0,95,0.00,,,0.00,Wunderground v.1.15,2013-05-13 14:40:00,
2013-05-13 07:45:00,52.9,51.5,30.06,SSW,193,1.0,2.0,95,0.00,,,0.00,Wunderground v.1.15,2013-05-13 14:45:00,
2013-05-13 07:55:00,53.2,51.5,30.06,SSE,167,1.0,2.0,94,0.00,,,0.00,Wunderground v.1.15,2013-05-13 14:55:00,
2013-05-13 08:00:00,53.3,51.6,30.06,South,189,2.0,2.0,94,0.00,,,0.00,Wunderground v.1.15,2013-05-13 15:00:00,
2013-05-13 08:05:00,53.5,51.8,30.06,SW,233,1.0,3.0,94,0.00,,,0.00,Wunderground v.1.15,2013-05-13 15:05:00,
2013-05-13 08:15:00,53.8,51.8,30.07,South,191,3.0,5.0,93,0.00,,,0.00,Wunderground v.1.15,2013-05-13 15:15:00,
2013-05-13 08:25:00,54.0,51.7,30.07,SW,231,3.0,3.0,92,0.00,,,0.00,Wunderground v.1.15,2013-05-13 15:25:00,
2013-05-13 08:35:00,54.1,52.1,30.07,South,188,3.0,4.0,93,0.00,,,0.00,Wunderground v.1.15,2013-05-13 15:35:00,
2013-05-13 08:45:00,54.3,52.0,30.07,WSW,243,2.0,3.0,92,0.00,,,0.00,Wunderground v.1.15,2013-05-13 15:45:00,
2013-05-13 08:55:00,55.0,52.7,30.07,SSW,202,1.0,2.0,92,0.00,,,0.00,Wunderground v.1.15,2013-05-13 15:55:00,
2013-05-13 09:05:00,55.9,53.0,30.07,NNW,329,2.0,4.0,90,0.00,,,0.00,Wunderground v.1.15,2013-05-13 16:05:00,
2013-05-13 09:15:00,57.0,53.2,30.07,WNW,285,2.0,4.0,87,0.00,,,0.00,Wunderground v.1.15,2013-05-13 16:15:00,
2013-05-13 09:25:00,57.2,53.0,30.08,SSW,212,3.0,6.0,86,0.00,,,0.00,Wunderground v.1.15,2013-05-13 16:25:00,
2013-05-13 09:35:00,57.7,53.2,30.08,WSW,241,2.0,4.0,85,0.00,,,0.00,Wunderground v.1.15,2013-05-13 16:35:00,
2013-05-13 09:45:00,58.3,53.5,30.08,SW,228,3.0,4.0,84,0.00,,,0.00,Wunderground v.1.15,2013-05-13 16:45:00,
2013-05-13 09:55:00,58.2,53.1,30.08,WSW,244,4.0,9.0,83,0.00,,,0.00,Wunderground v.1.15,2013-05-13 16:55:00,
2013-05-13 10:00:00,58.2,53.4,30.08,NW,319,4.0,4.0,84,0.00,,,0.00,Wunderground v.1.15,2013-05-13 17:00:00,
2013-05-13 10:05:00,58.8,53.6,30.08,SW,233,3.0,4.0,83,0.00,,,0.00,Wunderground v.1.15,2013-05-13 17:05:00,
2013-05-13 10:10:00,59.1,53.6,30.08,SSE,165,3.0,4.0,82,0.00,,,0.00,Wunderground v.1.15,2013-05-13 17:10:00,
2013-05-13 10:20:00,60.4,54.2,30.08,WSW,251,3.0,4.0,80,0.00,,,0.00,Wunderground v.1.15,2013-05-13 17:20:00,
2013-05-13 10:30:00,60.5,54.3,30.08,SE,146,3.0,4.0,80,0.00,,,0.00,Wunderground v.1.15,2013-05-13 17:30:00,
2013-05-13 10:40:00,60.8,54.2,30.09,SW,223,4.0,6.0,79,0.00,,,0.00,Wunderground v.1.15,2013-05-13 17:40:00,
2013-05-13 10:45:00,61.1,54.2,30.08,SSW,212,4.0,6.0,78,0.00,,,0.00,Wunderground v.1.15,2013-05-13 17:45:00,
2013-05-13 10:55:00,61.7,54.4,30.08,SW,234,2.0,5.0,77,0.00,,,0.00,Wunderground v.1.15,2013-05-13 17:55:00,
2013-05-13 11:05:00,62.4,54.7,30.08,SW,224,2.0,4.0,76,0.00,,,0.00,Wunderground v.1.15,2013-05-13 18:05:00,
2013-05-13 11:15:00,63.9,55.4,30.08,WSW,237,2.0,4.0,74,0.00,,,0.00,Wunderground v.1.15,2013-05-13 18:15:00,
2013-05-13 11:25:00,65.6,55.5,30.08,SE,137,2.0,4.0,70,0.00,,,0.00,Wunderground v.1.15,2013-05-13 18:25:00,
2013-05-13 11:35:00,66.0,55.5,30.08,West,259,4.0,7.0,69,0.00,,,0.00,Wunderground v.1.15,2013-05-13 18:35:00,
2013-05-13 11:40:00,65.8,55.3,30.08,SW,234,5.0,5.0,69,0.00,,,0.00,Wunderground v.1.15,2013-05-13 18:40:00,
2013-05-13 11:50:00,66.1,55.6,30.08,SW,236,5.0,5.0,69,0.00,,,0.00,Wunderground v.1.15,2013-05-13 18:50:00,
2013-05-13 12:00:00,66.2,55.7,30.07,West,267,4.0,4.0,69,0.00,,,0.00,Wunderground v.1.15,2013-05-13 19:00:00,
2013-05-13 12:10:00,66.9,56.0,30.07,SSW,202,4.0,5.0,68,0.00,,,0.00,Wunderground v.1.15,2013-05-13 19:10:00,
2013-05-13 12:20:00,68.2,56.4,30.07,WSW,255,5.0,7.0,66,0.00,,,0.00,Wunderground v.1.15,2013-05-13 19:20:00,
2013-05-13 12:30:00,68.4,56.6,30.07,WSW,257,5.0,5.0,66,0.00,,,0.00,Wunderground v.1.15,2013-05-13 19:30:00,
2013-05-13 12:35:00,69.0,56.7,30.06,SSW,207,4.0,5.0,65,0.00,,,0.00,Wunderground v.1.15,2013-05-13 19:35:00,
2013-05-13 12:45:00,69.8,57.1,30.06,South,176,2.0,4.0,64,0.00,,,0.00,Wunderground v.1.15,2013-05-13 19:45:00,
2013-05-13 12:55:00,70.2,57.0,30.05,WSW,241,4.0,5.0,63,0.00,,,0.00,Wunderground v.1.15,2013-05-13 19:55:00,
2013-05-13 13:05:00,71.0,56.9,30.05,WNW,283,4.0,7.0,61,0.00,,,0.00,Wunderground v.1.15,2013-05-13 20:05:00,
2013-05-13 13:15:00,70.8,56.7,30.05,WSW,257,5.0,6.0,61,0.00,,,0.00,Wunderground v.1.15,2013-05-13 20:15:00,
2013-05-13 13:25:00,71.0,56.9,30.05,SSW,197,4.0,8.0,61,0.00,,,0.00,Wunderground v.1.15,2013-05-13 20:25:00,
2013-05-13 13:35:00,70.6,56.9,30.04,WNW,282,4.0,7.0,62,0.00,,,0.00,Wunderground v.1.15,2013-05-13 20:35:00,
2013-05-13 13:40:00,70.9,57.7,30.04,West,264,5.0,5.0,63,0.00,,,0.00,Wunderground v.1.15,2013-05-13 20:40:00,
2013-05-13 13:50:00,71.5,58.2,30.04,SE,144,4.0,7.0,63,0.00,,,0.00,Wunderground v.1.15,2013-05-13 20:50:00,
2013-05-13 13:55:00,72.1,58.4,30.04,WSW,242,4.0,8.0,62,0.00,,,0.00,Wunderground v.1.15,2013-05-13 20:55:00,
2013-05-13 14:05:00,72.0,58.3,30.04,SW,226,6.0,11.0,62,0.00,,,0.00,Wunderground v.1.15,2013-05-13 21:05:00,
2013-05-13 14:15:00,71.4,58.6,30.03,SSW,211,6.0,7.0,64,0.00,,,0.00,Wunderground v.1.15,2013-05-13 21:15:00,
2013-05-13 14:25:00,70.7,57.5,30.03,South,186,7.0,8.0,63,0.00,,,0.00,Wunderground v.1.15,2013-05-13 21:25:00,
2013-05-13 14:35:00,71.7,58.4,30.03,SW,219,5.0,7.0,63,0.00,,,0.00,Wunderground v.1.15,2013-05-13 21:35:00,
2013-05-13 14:45:00,70.6,57.8,30.03,SSW,211,7.0,8.0,64,0.00,,,0.00,Wunderground v.1.15,2013-05-13 21:45:00,
2013-05-13 14:55:00,70.7,57.5,30.03,SSW,204,5.0,7.0,63,0.00,,,0.00,Wunderground v.1.15,2013-05-13 21:55:00,
2013-05-13 15:05:00,71.5,57.8,30.02,SW,217,4.0,7.0,62,0.00,,,0.00,Wunderground v.1.15,2013-05-13 22:05:00,
2013-05-13 15:15:00,72.2,57.5,30.01,South,179,5.0,7.0,60,0.00,,,0.00,Wunderground v.1.15,2013-05-13 22:15:00,
2013-05-13 15:20:00,72.8,57.6,30.01,South,182,4.0,4.0,59,0.00,,,0.00,Wunderground v.1.15,2013-05-13 22:20:00,
2013-05-13 15:30:00,73.6,57.4,30.01,WSW,253,3.0,7.0,57,0.00,,,0.00,Wunderground v.1.15,2013-05-13 22:30:00,
2013-05-13 15:35:00,73.5,57.8,30.00,South,169,4.0,7.0,58,0.00,,,0.00,Wunderground v.1.15,2013-05-13 22:35:00,
2013-05-13 15:45:00,73.0,57.8,30.00,SSW,201,5.0,7.0,59,0.00,,,0.00,Wunderground v.1.15,2013-05-13 22:45:00,
2013-05-13 15:55:00,72.8,58.1,30.00,WSW,247,5.0,9.0,60,0.00,,,0.00,Wunderground v.1.15,2013-05-13 22:55:00,
2013-05-13 16:00:00,72.2,58.0,30.00,SW,214,6.0,9.0,61,0.00,,,0.00,Wunderground v.1.15,2013-05-13 23:00:00,
2013-05-13 16:10:00,70.9,57.7,29.99,SSW,209,7.0,7.0,63,0.00,,,0.00,Wunderground v.1.15,2013-05-13 23:10:00,
2013-05-13 16:15:00,70.6,57.8,29.99,WSW,240,6.0,7.0,64,0.00,,,0.00,Wunderground v.1.15,2013-05-13 23:15:00,
2013-05-13 16:20:00,70.7,57.5,29.99,South,173,5.0,5.0,63,0.00,,,0.00,Wunderground v.1.15,2013-05-13 23:20:00,
2013-05-13 16:30:00,71.1,57.4,29.99,SSW,203,5.0,5.0,62,0.00,,,0.00,Wunderground v.1.15,2013-05-13 23:30:00,
2013-05-13 16:40:00,69.8,56.6,29.99,SW,229,7.0,7.0,63,0.00,,,0.00,Wunderground v.1.15,2013-05-13 23:40:00,
2013-05-13 16:50:00,68.8,56.6,29.98,SSW,193,6.0,6.0,65,0.00,,,0.00,Wunderground v.1.15,2013-05-13 23:50:00,
2013-05-13 16:55:00,68.4,56.2,29.98,WSW,249,6.0,6.0,65,0.00,,,0.00,Wunderground v.1.15,2013-05-13 23:55:00,
2013-05-13 17:00:00,68.0,56.2,29.99,SSW,201,6.0,11.0,66,0.00,,,0.00,Wunderground v.1.15,2013-05-14 00:00:00,
2013-05-13 17:10:00,66.9,56.4,29.98,SW,217,7.0,7.0,69,0.00,,,0.00,Wunderground v.1.15,2013-05-14 00:10:00,
2013-05-13 17:20:00,66.5,56.4,29.98,SW,234,5.0,5.0,70,0.00,,,0.00,Wunderground v.1.15,2013-05-14 00:20:00,
2013-05-13 17:30:00,66.6,56.5,29.98,SW,227,5.0,11.0,70,0.00,,,0.00,Wunderground v.1.15,2013-05-14 00:30:00,
2013-05-13 17:40:00,66.0,55.9,29.98,SSW,201,5.0,5.0,70,0.00,,,0.00,Wunderground v.1.15,2013-05-14 00:40:00,
2013-05-13 17:50:00,66.5,56.4,29.98,SSW,195,4.0,4.0,70,0.00,,,0.00,Wunderground v.1.15,2013-05-14 00:50:00,
2013-05-13 17:55:00,66.8,56.3,29.97,SW,218,4.0,11.0,69,0.00,,,0.00,Wunderground v.1.15,2013-05-14 00:55:00,
2013-05-13 18:05:00,67.0,56.5,29.97,SW,214,3.0,11.0,69,0.00,,,0.00,Wunderground v.1.15,2013-05-14 01:05:00,
2013-05-13 18:15:00,65.7,55.6,29.97,WSW,249,5.0,11.0,70,0.00,,,0.00,Wunderground v.1.15,2013-05-14 01:15:00,
2013-05-13 18:20:00,65.6,55.9,29.97,SW,228,4.0,11.0,71,0.00,,,0.00,Wunderground v.1.15,2013-05-14 01:20:00,
2013-05-13 18:25:00,65.4,55.7,29.96,SSW,211,3.0,11.0,71,0.00,,,0.00,Wunderground v.1.15,2013-05-14 01:25:00,
2013-05-13 18:30:00,65.2,55.6,29.96,SSW,202,4.0,4.0,71,0.00,,,0.00,Wunderground v.1.15,2013-05-14 01:30:00,
2013-05-13 18:40:00,65.0,55.8,29.96,West,269,3.0,11.0,72,0.00,,,0.00,Wunderground v.1.15,2013-05-14 01:40:00,
2013-05-13 18:45:00,64.7,55.8,29.96,SW,233,4.0,11.0,73,0.00,,,0.00,Wunderground v.1.15,2013-05-14 01:45:00,
2013-05-13 18:55:00,63.6,55.2,29.96,WSW,250,3.0,11.0,74,0.00,,,0.00,Wunderground v.1.15,2013-05-14 01:55:00,
2013-05-13 19:05:00,62.8,55.1,29.95,WSW,250,4.0,11.0,76,0.00,,,0.00,Wunderground v.1.15,2013-05-14 02:05:00,
2013-05-13 19:10:00,62.6,54.9,29.95,SW,228,4.0,4.0,76,0.00,,,0.00,Wunderground v.1.15,2013-05-14 02:10:00,
2013-05-13 19:20:00,62.1,54.8,29.95,SSE,167,3.0,3.0,77,0.00,,,0.00,Wunderground v.1.15,2013-05-14 02:20:00,
2013-05-13 19:30:00,61.4,53.0,29.95,WSW,243,4.0,4.0,74,0.00,,,0.00,Wunderground v.1.15,2013-05-14 02:30:00,
2013-05-13 19:40:00,61.1,53.5,29.95,WSW,246,3.0,3.0,76,0.00,,,0.00,Wunderground v.1.15,2013-05-14 02:40:00,
2013-05-13 19:50:00,60.7,53.1,29.95,South,191,1.0,1.0,76,0.00,,,0.00,Wunderground v.1.15,2013-05-14 02:50:00,
2013-05-13 19:55:00,60.5,53.3,29.95,SSW,199,1.0,1.0,77,0.00,,,0.00,Wunderground v.1.15,2013-05-14 02:55:00,
2013-05-13 20:05:00,60.1,53.6,29.95,South,191,0.0,6.0,79,0.00,,,0.00,Wunderground v.1.15,2013-05-14 03:05:00,
2013-05-13 20:15:00,59.7,53.5,29.95,South,191,0.0,6.0,80,0.00,,,0.00,Wunderground v.1.15,2013-05-14 03:15:00,
2013-05-13 20:25:00,59.3,53.1,29.95,South,184,0.0,6.0,80,0.00,,,0.00,Wunderground v.1.15,2013-05-14 03:25:00,
2013-05-13 20:35:00,58.7,52.9,29.95,South,184,0.0,6.0,81,0.00,,,0.00,Wunderground v.1.15,2013-05-14 03:35:00,
2013-05-13 20:45:00,58.3,52.8,29.95,SE,136,0.0,6.0,82,0.00,,,0.00,Wunderground v.1.15,2013-05-14 03:45:00,
2013-05-13 20:55:00,57.9,52.8,29.95,SE,136,0.0,6.0,83,0.00,,,0.00,Wunderground v.1.15,2013-05-14 03:55:00,
2013-05-13 21:05:00,57.5,52.4,29.95,SE,137,0.0,6.0,83,0.00,,,0.00,Wunderground v.1.15,2013-05-14 04:05:00,
2013-05-13 21:15:00,57.2,52.1,29.96,SE,137,0.0,6.0,83,0.00,,,0.00,Wunderground v.1.15,2013-05-14 04:15:00,
2013-05-13 21:20:00,56.9,52.1,29.96,SE,137,0.0,6.0,84,0.00,,,0.00,Wunderground v.1.15,2013-05-14 04:20:00,
2013-05-13 21:30:00,56.5,51.7,29.96,SE,131,0.0,6.0,84,0.00,,,0.00,Wunderground v.1.15,2013-05-14 04:30:00,
2013-05-13 21:35:00,56.2,51.7,29.96,SE,131,0.0,6.0,85,0.00,,,0.00,Wunderground v.1.15,2013-05-14 04:35:00,
2013-05-13 21:45:00,55.8,51.4,29.96,SSE,150,0.0,6.0,85,0.00,,,0.00,Wunderground v.1.15,2013-05-14 04:45:00,
2013-05-13 21:50:00,55.6,51.2,29.96,ESE,105,0.0,6.0,85,0.00,,,0.00,Wunderground v.1.15,2013-05-14 04:50:00,
2013-05-13 21:55:00,55.3,51.2,29.96,ESE,104,0.0,6.0,86,0.00,,,0.00,Wunderground v.1.15,2013-05-14 04:55:00,
2013-05-13 22:05:00,55.0,50.9,29.96,SE,134,1.0,6.0,86,0.00,,,0.00,Wunderground v.1.15,2013-05-14 05:05:00,
2013-05-13 22:15:00,54.8,51.0,29.96,SSE,153,1.0,1.0,87,0.00,,,0.00,Wunderground v.1.15,2013-05-14 05:15:00,
2013-05-13 22:20:00,54.8,50.7,29.96,SSE,156,1.0,1.0,86,0.00,,,0.00,Wunderground v.1.15,2013-05-14 05:20:00,
2013-05-13 22:30:00,54.7,50.6,29.97,SSE,152,1.0,1.0,86,0.00,,,0.00,Wunderground v.1.15,2013-05-14 05:30:00,
2013-05-13 22:40:00,54.6,50.8,29.96,ESE,115,0.0,0.0,87,0.00,,,0.00,Wunderground v.1.15,2013-05-14 05:40:00,
2013-05-13 22:50:00,54.4,50.6,29.96,ESE,108,0.0,0.0,87,0.00,,,0.00,Wunderground v.1.15,2013-05-14 05:50:00,
2013-05-13 23:00:00,53.9,50.1,29.96,East,99,0.0,3.0,87,0.00,,,0.00,Wunderground v.1.15,2013-05-14 06:00:00,
2013-05-13 23:05:00,53.7,49.9,29.96,East,100,0.0,3.0,87,0.00,,,0.00,Wunderground v.1.15,2013-05-14 06:05:00,
2013-05-13 23:15:00,53.4,49.9,29.95,East,97,0.0,3.0,88,0.00,,,0.00,Wunderground v.1.15,2013-05-14 06:15:00,
2013-05-13 23:20:00,53.3,49.8,29.95,East,97,0.0,3.0,88,0.00,,,0.00,Wunderground v.1.15,2013-05-14 06:20:00,
2013-05-13 23:30:00,53.1,49.6,29.94,East,97,0.0,3.0,88,0.00,,,0.00,Wunderground v.1.15,2013-05-14 06:30:00,
2013-05-13 23:35:00,52.8,49.3,29.94,East,97,0.0,3.0,88,0.00,,,0.00,Wunderground v.1.15,2013-05-14 06:35:00,
2013-05-13 23:45:00,52.4,48.9,29.94,East,97,0.0,3.0,88,0.00,,,0.00,Wunderground v.1.15,2013-05-14 06:45:00,
2013-05-13 23:55:00,52.2,48.8,29.94,East,97,0.0,3.0,88,0.00,,,0.00,Wunderground v.1.15,2013-05-14 06:55:00,